createdAt,value
2022-10-18T00:00:20.811Z,76.51
2022-10-18T00:02:47.941Z,77.00
2022-10-18T00:05:16.030Z,76.88
2022-10-18T00:07:42.991Z,76.78
2022-10-18T00:10:10.702Z,76.82
2022-10-18T00:12:38.624Z,77.02
2022-10-18T00:15:08.131Z,77.20
2022-10-18T00:17:39.713Z,76.97
2022-10-18T00:20:07.735Z,76.59
2022-10-18T00:22:37.340Z,77.03
2022-10-18T00:25:06.048Z,76.74
2022-10-18T00:27:34.388Z,76.76
2022-10-18T00:30:01.384Z,77.20
2022-10-18T00:32:28.607Z,76.92
2022-10-18T00:34:55.811Z,76.58
2022-10-18T00:37:22.848Z,76.11
2022-10-18T00:39:49.841Z,76.02
2022-10-18T00:42:21.895Z,76.67
2022-10-18T00:44:51.962Z,76.85
2022-10-18T00:47:20.077Z,76.97
2022-10-18T00:49:56.080Z,77.49
2022-10-18T00:52:29.906Z,77.62
2022-10-18T00:54:58.526Z,77.20
2022-10-18T00:57:26.247Z,77.14
2022-10-18T00:59:54.139Z,77.47
2022-10-18T01:02:21.876Z,76.73
2022-10-18T01:04:49.334Z,77.27
2022-10-18T01:07:32.284Z,77.12
2022-10-18T01:10:08.635Z,77.21
2022-10-18T01:12:47.865Z,77.23
2022-10-18T01:15:48.816Z,77.10
2022-10-18T01:18:15.569Z,77.09
2022-10-18T01:21:04.811Z,77.08
2022-10-18T01:23:50.965Z,77.07
2022-10-18T01:26:17.832Z,76.69
2022-10-18T01:29:09.133Z,76.51
2022-10-18T01:31:46.925Z,76.85
2022-10-18T01:34:18.324Z,76.62
2022-10-18T01:36:50.034Z,76.68
2022-10-18T01:39:22.527Z,76.44
2022-10-18T01:41:52.092Z,75.80
2022-10-18T01:44:24.939Z,75.98
2022-10-18T01:46:54.235Z,76.17
2022-10-18T01:49:21.872Z,76.27
2022-10-18T01:51:49.106Z,75.56
2022-10-18T01:54:20.900Z,75.74
2022-10-18T01:56:50.688Z,75.86
2022-10-18T01:59:46.964Z,76.04
2022-10-18T02:02:26.457Z,76.08
2022-10-18T02:05:34.811Z,75.78
2022-10-18T02:08:29.869Z,75.64
2022-10-18T02:11:04.923Z,75.61
2022-10-18T02:13:42.486Z,75.93
2022-10-18T02:16:16.063Z,75.46
2022-10-18T02:18:50.196Z,75.61
2022-10-18T02:21:21.050Z,75.86
2022-10-18T02:23:48.945Z,75.86
2022-10-18T02:26:16.595Z,75.53
2022-10-18T02:28:46.035Z,75.70
2022-10-18T02:31:20.878Z,75.66
2022-10-18T02:33:58.960Z,75.86
2022-10-18T02:36:48.123Z,75.50
2022-10-18T02:39:19.705Z,75.77
2022-10-18T02:41:47.405Z,75.79
2022-10-18T02:44:14.483Z,74.99
2022-10-18T02:46:42.493Z,75.29
2022-10-18T02:49:09.514Z,75.40
2022-10-18T02:51:36.834Z,75.67
2022-10-18T02:54:04.086Z,75.83
2022-10-18T02:56:31.173Z,75.49
2022-10-18T02:58:58.244Z,75.34
2022-10-18T03:01:25.248Z,74.60
2022-10-18T03:03:52.225Z,75.36
2022-10-18T03:06:19.662Z,75.34
2022-10-18T03:08:46.658Z,75.26
2022-10-18T03:11:13.805Z,75.26
2022-10-18T03:13:40.781Z,75.05
2022-10-18T03:16:07.741Z,75.01
2022-10-18T03:18:34.770Z,74.72
2022-10-18T03:21:06.605Z,75.18
2022-10-18T03:23:33.618Z,74.83
2022-10-18T03:26:01.060Z,74.59
2022-10-18T03:28:28.131Z,74.30
2022-10-18T03:31:02.742Z,74.83
2022-10-18T03:33:30.867Z,74.78
2022-10-18T03:35:58.517Z,74.60
2022-10-18T03:38:25.527Z,74.80
2022-10-18T03:40:52.530Z,74.63
2022-10-18T03:43:19.874Z,74.55
2022-10-18T03:45:47.231Z,74.61
2022-10-18T03:48:14.524Z,74.10
2022-10-18T03:50:41.384Z,74.29
2022-10-18T03:53:08.441Z,74.52
2022-10-18T03:55:35.553Z,74.53
2022-10-18T03:58:04.900Z,74.10
2022-10-18T04:00:31.991Z,74.16
2022-10-18T04:02:58.967Z,74.03
2022-10-18T04:05:28.327Z,73.63
2022-10-18T04:07:55.452Z,73.83
2022-10-18T04:10:23.398Z,74.32
2022-10-18T04:12:50.325Z,73.17
2022-10-18T04:15:17.328Z,74.07
2022-10-18T04:17:44.243Z,73.76
2022-10-18T04:20:11.587Z,74.01
2022-10-18T04:22:38.639Z,73.62
2022-10-18T04:25:06.057Z,73.82
2022-10-18T04:27:33.336Z,73.14
2022-10-18T04:30:00.603Z,73.83
2022-10-18T04:32:29.437Z,73.70
2022-10-18T04:34:56.383Z,73.51
2022-10-18T04:37:23.721Z,73.74
2022-10-18T04:39:53.493Z,73.73
2022-10-18T04:42:21.828Z,73.37
2022-10-18T04:44:49.348Z,73.73
2022-10-18T04:47:17.497Z,73.66
2022-10-18T04:49:44.609Z,73.30
2022-10-18T04:52:11.662Z,73.31
2022-10-18T04:54:38.592Z,73.50
2022-10-18T04:57:05.620Z,73.46
2022-10-18T04:59:32.650Z,73.43
2022-10-18T05:01:59.683Z,73.56
2022-10-18T05:04:26.982Z,72.74
2022-10-18T05:06:53.926Z,73.72
2022-10-18T05:09:24.913Z,72.81
2022-10-18T05:11:52.006Z,73.73
2022-10-18T05:14:19.146Z,73.48
2022-10-18T05:16:46.303Z,73.41
2022-10-18T05:19:13.355Z,73.05
2022-10-18T05:21:40.515Z,73.46
2022-10-18T05:24:07.840Z,73.55
2022-10-18T05:26:34.841Z,73.34
2022-10-18T05:29:02.016Z,73.16
2022-10-18T05:31:30.886Z,73.12
2022-10-18T05:33:57.835Z,73.02
2022-10-18T05:36:26.479Z,72.91
2022-10-18T05:38:54.411Z,73.00
2022-10-18T05:41:21.820Z,72.67
2022-10-18T05:43:48.741Z,72.60
2022-10-18T05:46:15.966Z,72.32
2022-10-18T05:48:44.821Z,72.23
2022-10-18T05:51:12.291Z,71.24
2022-10-18T05:53:39.296Z,71.76
2022-10-18T05:56:07.448Z,71.21
2022-10-18T05:58:35.193Z,71.23
2022-10-18T06:01:03.386Z,71.36
2022-10-18T06:03:33.688Z,71.04
2022-10-18T06:06:01.239Z,71.19
2022-10-18T06:08:28.227Z,71.03
2022-10-18T06:10:55.321Z,70.64
2022-10-18T06:13:22.350Z,70.74
2022-10-18T06:15:49.458Z,70.83
2022-10-18T06:18:16.891Z,70.54
2022-10-18T06:20:43.916Z,70.04
2022-10-18T06:23:10.873Z,69.74
2022-10-18T06:25:37.785Z,69.10
2022-10-18T06:28:07.958Z,69.08
2022-10-18T06:30:37.406Z,69.62
2022-10-18T06:33:04.547Z,69.21
2022-10-18T06:35:31.568Z,68.36
2022-10-18T06:37:58.563Z,67.95
2022-10-18T06:40:25.517Z,68.43
2022-10-18T06:43:00.663Z,67.36
2022-10-18T06:45:37.545Z,67.59
2022-10-18T06:48:04.793Z,66.70
2022-10-18T06:50:31.776Z,66.73
2022-10-18T06:52:58.970Z,66.16
2022-10-18T06:55:25.921Z,65.72
2022-10-18T06:57:54.549Z,65.14
2022-10-18T07:00:21.458Z,65.70
2022-10-18T07:02:48.824Z,65.81
2022-10-18T07:05:15.997Z,65.77
2022-10-18T07:07:43.108Z,65.39
2022-10-18T07:10:13.004Z,64.65
2022-10-18T07:12:40.295Z,63.17
2022-10-18T07:15:09.451Z,64.67
2022-10-18T07:17:36.865Z,64.72
2022-10-18T07:20:04.645Z,64.58
2022-10-18T07:22:31.563Z,63.72
2022-10-18T07:24:58.519Z,64.16
2022-10-18T07:27:25.539Z,63.47
2022-10-18T07:29:52.496Z,62.49
2022-10-18T07:32:19.890Z,62.43
2022-10-18T07:34:46.842Z,62.34
2022-10-18T07:37:13.770Z,62.60
2022-10-18T07:39:40.703Z,62.32
2022-10-18T07:42:07.693Z,61.71
2022-10-18T07:44:34.525Z,62.31
2022-10-18T07:47:01.576Z,61.83
2022-10-18T07:49:28.539Z,61.50
2022-10-18T07:51:55.422Z,60.51
2022-10-18T07:54:22.848Z,61.12
2022-10-18T07:56:49.819Z,60.47
2022-10-18T07:59:16.801Z,60.67
2022-10-18T08:01:43.745Z,61.34
2022-10-18T08:04:16.070Z,60.89
2022-10-18T08:06:43.890Z,61.14
2022-10-18T08:09:10.887Z,60.53
2022-10-18T08:11:37.895Z,60.23
2022-10-18T08:14:04.877Z,61.05
2022-10-18T08:19:18.880Z,58.99
2022-10-18T08:21:45.835Z,59.68
2022-10-18T08:24:12.831Z,58.84
2022-10-18T08:26:39.725Z,59.34
2022-10-18T08:29:25.735Z,59.67
2022-10-18T08:31:53.630Z,59.28
2022-10-18T08:34:20.652Z,59.26
2022-10-18T08:36:47.625Z,59.06
2022-10-18T08:39:14.672Z,57.07
2022-10-18T08:41:54.172Z,57.67
2022-10-18T08:44:24.899Z,57.88
2022-10-18T08:46:53.255Z,57.30
2022-10-18T08:49:33.739Z,56.68
2022-10-18T08:52:00.818Z,56.92
2022-10-18T08:54:32.054Z,56.35
2022-10-18T08:57:02.617Z,56.99
2022-10-18T08:59:32.559Z,56.92
2022-10-18T09:02:20.926Z,57.52
2022-10-18T09:04:50.974Z,57.70
2022-10-18T09:07:55.630Z,56.40
2022-10-18T09:10:50.735Z,56.46
2022-10-18T09:13:58.910Z,55.22
2022-10-18T09:16:50.644Z,56.07
2022-10-18T09:19:35.830Z,55.52
2022-10-18T09:22:16.684Z,55.99
2022-10-18T09:24:52.017Z,55.43
2022-10-18T09:27:21.051Z,55.87
2022-10-18T09:30:21.143Z,54.89
2022-10-18T09:32:59.949Z,55.93
2022-10-18T09:35:40.117Z,56.37
2022-10-18T09:38:13.479Z,56.31
2022-10-18T09:41:26.988Z,54.89
2022-10-18T09:44:16.164Z,56.09
2022-10-18T09:46:49.490Z,55.67
2022-10-18T09:49:31.301Z,55.63
2022-10-18T09:52:04.027Z,55.26
2022-10-18T09:54:42.373Z,54.49
2022-10-18T09:57:25.347Z,55.06
2022-10-18T09:59:52.415Z,55.30
2022-10-18T10:02:24.167Z,55.87
2022-10-18T10:04:52.395Z,55.76
2022-10-18T10:07:24.389Z,55.95
2022-10-18T10:10:05.037Z,55.45
2022-10-18T10:12:40.011Z,55.48
2022-10-18T10:15:12.889Z,55.39
2022-10-18T10:17:40.644Z,55.32
2022-10-18T10:20:23.613Z,55.05
2022-10-18T10:22:52.465Z,55.73
2022-10-18T10:25:29.373Z,55.00
2022-10-18T10:28:01.554Z,56.51
2022-10-18T10:30:32.900Z,56.21
2022-10-18T10:33:00.081Z,56.52
2022-10-18T10:35:54.347Z,55.88
2022-10-18T10:38:29.754Z,55.47
2022-10-18T10:40:57.625Z,56.14
2022-10-18T10:43:38.102Z,56.67
2022-10-18T10:46:20.285Z,55.81
2022-10-18T10:48:47.225Z,56.20
2022-10-18T10:51:16.217Z,56.87
2022-10-18T10:53:51.299Z,56.19
2022-10-18T10:56:28.220Z,56.17
2022-10-18T10:58:58.712Z,56.63
2022-10-18T11:01:33.552Z,56.83
2022-10-18T11:04:30.387Z,56.24
2022-10-18T11:07:36.370Z,55.95
2022-10-18T11:10:12.690Z,56.59
2022-10-18T11:13:08.125Z,55.60
2022-10-18T11:15:47.865Z,56.24
2022-10-18T11:18:20.415Z,56.41
2022-10-18T11:21:08.623Z,56.69
2022-10-18T11:23:38.104Z,56.90
2022-10-18T11:26:13.750Z,56.78
2022-10-18T11:29:06.838Z,56.04
2022-10-18T11:31:39.909Z,56.14
2022-10-18T11:34:54.802Z,55.97
2022-10-18T11:37:40.646Z,56.07
2022-10-18T11:40:45.218Z,56.36
2022-10-18T11:43:34.430Z,55.74
2022-10-18T11:46:48.126Z,55.68
2022-10-18T11:49:33.516Z,56.22
2022-10-18T11:52:12.258Z,57.06
2022-10-18T11:55:07.001Z,55.58
2022-10-18T11:57:55.334Z,56.58
2022-10-18T12:00:45.068Z,56.36
2022-10-18T12:03:21.503Z,56.98
2022-10-18T12:05:51.534Z,56.79
2022-10-18T12:08:21.375Z,56.62
2022-10-18T12:11:09.238Z,56.96
2022-10-18T12:13:48.901Z,56.51
2022-10-18T12:16:18.420Z,57.28
2022-10-18T12:19:00.967Z,57.15
2022-10-18T12:21:32.220Z,57.22
2022-10-18T12:24:07.322Z,57.66
2022-10-18T12:26:35.906Z,56.87
2022-10-18T12:29:45.393Z,56.70
2022-10-18T12:32:27.464Z,56.52
2022-10-18T12:35:06.970Z,56.26
2022-10-18T12:37:58.228Z,55.95
2022-10-18T12:40:46.235Z,56.46
2022-10-18T12:43:24.436Z,56.60
2022-10-18T12:45:56.292Z,56.65
2022-10-18T12:48:34.101Z,56.13
2022-10-18T12:51:22.306Z,56.53
2022-10-18T12:54:11.297Z,56.28
2022-10-18T12:56:42.392Z,57.24
2022-10-18T12:59:15.666Z,57.00
2022-10-18T13:01:51.729Z,56.22
2022-10-18T13:04:27.964Z,56.19
2022-10-18T13:06:57.734Z,56.70
2022-10-18T13:09:27.745Z,56.56
2022-10-18T13:12:02.075Z,57.10
2022-10-18T13:15:05.670Z,56.80
2022-10-18T13:18:01.345Z,57.28
2022-10-18T13:20:38.864Z,56.31
2022-10-18T13:23:17.963Z,56.84
2022-10-18T13:26:13.222Z,56.67
2022-10-18T13:28:40.172Z,56.97
2022-10-18T13:31:22.543Z,57.25
2022-10-18T13:33:50.483Z,58.00
2022-10-18T13:36:22.591Z,57.33
2022-10-18T13:39:06.489Z,57.97
2022-10-18T13:41:35.460Z,58.05
2022-10-18T13:44:02.714Z,58.38
2022-10-18T13:46:36.858Z,58.19
2022-10-18T13:49:22.681Z,58.48
2022-10-18T13:52:11.567Z,58.35
2022-10-18T13:54:44.549Z,58.84
2022-10-18T13:57:46.596Z,58.04
2022-10-18T14:00:19.480Z,59.17
2022-10-18T14:02:57.739Z,59.28
2022-10-18T14:06:00.786Z,59.26
2022-10-18T14:08:46.491Z,59.52
2022-10-18T14:11:35.002Z,59.63
2022-10-18T14:14:14.613Z,60.13
2022-10-18T14:16:55.024Z,59.90
2022-10-18T14:19:51.541Z,60.86
2022-10-18T14:22:28.861Z,60.86
2022-10-18T14:24:58.071Z,60.86
2022-10-18T14:27:27.929Z,60.99
2022-10-18T14:30:27.433Z,60.95
2022-10-18T14:32:57.104Z,61.33
2022-10-18T14:35:32.533Z,61.21
2022-10-18T14:38:00.226Z,61.46
2022-10-18T14:40:31.989Z,61.96
2022-10-18T14:43:20.418Z,61.52
2022-10-18T14:45:47.447Z,61.77
2022-10-18T14:48:22.018Z,61.84
2022-10-18T14:50:59.511Z,61.92
2022-10-18T14:53:32.922Z,62.32
2022-10-18T14:56:01.285Z,61.98
2022-10-18T14:58:29.109Z,61.95
2022-10-18T15:00:56.264Z,63.14
2022-10-18T15:03:24.181Z,63.17
2022-10-18T15:05:56.195Z,63.42
2022-10-18T15:08:25.223Z,63.78
2022-10-18T15:10:52.716Z,63.91
2022-10-18T15:13:19.874Z,63.70
2022-10-18T15:15:47.540Z,64.55
2022-10-18T15:18:22.574Z,64.81
2022-10-18T15:21:22.525Z,65.27
2022-10-18T15:23:50.719Z,64.92
2022-10-18T15:26:35.855Z,65.14
2022-10-18T15:29:06.111Z,65.21
2022-10-18T15:31:44.612Z,66.29
2022-10-18T15:34:26.406Z,66.46
2022-10-18T15:36:56.380Z,66.34
2022-10-18T15:39:31.001Z,66.76
2022-10-18T15:42:00.253Z,66.67
2022-10-18T15:44:35.088Z,66.76
2022-10-18T15:47:16.490Z,66.95
2022-10-18T15:49:46.535Z,67.21
2022-10-18T15:52:22.499Z,67.48
2022-10-18T15:54:49.608Z,67.05
2022-10-18T15:57:18.815Z,67.00
2022-10-18T16:00:04.073Z,66.58
2022-10-18T16:02:31.892Z,66.83
2022-10-18T16:05:03.182Z,67.63
2022-10-18T16:07:30.437Z,67.65
2022-10-18T16:09:57.583Z,67.53
2022-10-18T16:12:24.419Z,66.84
2022-10-18T16:14:51.384Z,66.70
2022-10-18T16:17:18.401Z,67.35
2022-10-18T16:19:45.548Z,67.82
2022-10-18T16:25:00.681Z,69.73
2022-10-18T16:27:28.004Z,69.83
2022-10-18T16:29:54.942Z,71.02
2022-10-18T16:32:21.875Z,74.29
2022-10-18T16:34:48.815Z,77.18
2022-10-18T16:37:15.957Z,78.40
2022-10-18T16:39:42.795Z,79.27
2022-10-18T16:42:09.706Z,79.41
2022-10-18T16:44:36.657Z,80.22
2022-10-18T16:47:03.848Z,79.87
2022-10-18T16:49:30.862Z,82.10
2022-10-18T16:51:58.018Z,80.92
2022-10-18T16:54:25.156Z,80.92
2022-10-18T16:56:52.141Z,80.96
2022-10-18T16:59:26.383Z,81.81
2022-10-18T17:01:53.388Z,81.83
2022-10-18T17:04:20.447Z,82.23
2022-10-18T17:06:49.460Z,82.49
2022-10-18T17:09:16.757Z,82.62
2022-10-18T17:11:43.939Z,82.75
2022-10-18T17:14:10.921Z,82.21
2022-10-18T17:16:39.234Z,82.83
2022-10-18T17:19:10.698Z,83.33
2022-10-18T17:21:37.948Z,83.09
2022-10-18T17:24:06.449Z,82.48
2022-10-18T17:26:33.849Z,83.04
2022-10-18T17:29:04.736Z,83.07
2022-10-18T17:31:32.762Z,83.18
2022-10-18T17:34:02.232Z,82.77
2022-10-18T17:36:30.516Z,82.22
2022-10-18T17:38:57.493Z,82.52
2022-10-18T17:41:24.469Z,82.86
2022-10-18T17:43:51.472Z,82.73
2022-10-18T17:46:19.783Z,82.78
2022-10-18T17:48:47.157Z,83.06
2022-10-18T17:51:17.092Z,83.00
2022-10-18T17:53:44.530Z,82.89
2022-10-18T17:56:13.123Z,82.89
2022-10-18T17:58:40.121Z,83.09
2022-10-18T18:01:19.413Z,82.93
2022-10-18T18:03:48.132Z,83.38
2022-10-18T18:06:25.605Z,83.37
2022-10-18T18:08:52.647Z,83.25
2022-10-18T18:11:19.600Z,83.00
2022-10-18T18:13:46.585Z,83.30
2022-10-18T18:16:22.157Z,83.67
2022-10-18T18:18:52.725Z,83.48
2022-10-18T18:21:20.827Z,82.96
2022-10-18T18:23:48.873Z,82.18
2022-10-18T18:26:16.860Z,82.02
2022-10-18T18:28:44.213Z,80.88
2022-10-18T18:31:16.965Z,80.76
2022-10-18T18:33:44.381Z,80.29
2022-10-18T18:36:12.228Z,80.48
2022-10-18T18:38:42.891Z,80.59
2022-10-18T18:41:11.353Z,80.99
2022-10-18T18:43:39.876Z,80.89
2022-10-18T18:46:08.153Z,81.39
2022-10-18T18:48:36.404Z,80.83
2022-10-18T18:51:05.284Z,80.67
2022-10-18T18:53:32.968Z,80.95
2022-10-18T18:56:05.553Z,80.98
2022-10-18T18:58:34.965Z,80.75
2022-10-18T19:01:12.309Z,80.77
2022-10-18T19:03:40.592Z,80.20
2022-10-18T19:06:11.020Z,79.95
2022-10-18T19:08:39.633Z,80.65
2022-10-18T19:11:09.403Z,80.48
2022-10-18T19:13:37.175Z,80.68
2022-10-18T19:16:17.301Z,80.95
2022-10-18T19:18:44.458Z,80.89
2022-10-18T19:21:11.378Z,81.09
2022-10-18T19:23:38.326Z,81.38
2022-10-18T19:26:13.390Z,81.57
2022-10-18T19:28:40.324Z,81.49
2022-10-18T19:31:07.968Z,81.46
2022-10-18T19:33:47.954Z,81.61
2022-10-18T19:36:21.865Z,81.70
2022-10-18T19:38:48.849Z,81.61
2022-10-18T19:41:15.868Z,81.64
2022-10-18T19:43:42.900Z,81.89
2022-10-18T19:46:09.943Z,82.31
2022-10-18T19:48:36.937Z,82.45
2022-10-18T19:51:06.381Z,82.73
2022-10-18T19:53:35.797Z,82.80
2022-10-18T19:56:04.703Z,82.88
2022-10-18T19:58:32.597Z,82.75
2022-10-18T20:01:00.575Z,82.81
2022-10-18T20:03:30.640Z,82.23
2022-10-18T20:05:59.722Z,82.04
2022-10-18T20:08:28.707Z,82.28
2022-10-18T20:11:03.625Z,82.27
2022-10-18T20:13:30.792Z,81.59
2022-10-18T20:15:58.043Z,82.20
2022-10-18T20:18:25.496Z,81.58
2022-10-18T20:20:52.475Z,81.55
2022-10-18T20:23:20.344Z,81.59
2022-10-18T20:26:01.957Z,81.73
2022-10-18T20:28:29.769Z,81.44
2022-10-18T20:31:18.164Z,81.83
2022-10-18T20:33:47.086Z,81.90
2022-10-18T20:36:16.833Z,81.94
2022-10-18T20:38:45.914Z,81.50
2022-10-18T20:41:28.030Z,81.34
2022-10-18T20:43:59.919Z,81.68
2022-10-18T20:46:30.123Z,82.22
2022-10-18T20:48:57.527Z,81.86
2022-10-18T20:51:25.019Z,82.84
2022-10-18T20:53:52.568Z,82.84
2022-10-18T20:56:22.361Z,82.17
2022-10-18T20:58:55.664Z,82.19
2022-10-18T21:01:26.100Z,82.54
2022-10-18T21:03:55.203Z,82.14
2022-10-18T21:06:30.435Z,82.75
2022-10-18T21:09:03.949Z,82.69
2022-10-18T21:11:35.151Z,82.15
2022-10-18T21:14:06.589Z,82.87
2022-10-18T21:16:35.814Z,82.86
2022-10-18T21:19:29.378Z,82.90
2022-10-18T21:21:57.892Z,83.04
2022-10-18T21:24:26.373Z,83.27
2022-10-18T21:26:53.860Z,83.32
2022-10-18T21:29:22.492Z,83.65
2022-10-18T21:31:53.255Z,82.85
2022-10-18T21:34:20.217Z,82.32
2022-10-18T21:36:48.444Z,83.09
2022-10-18T21:39:18.443Z,82.99
2022-10-18T21:41:46.107Z,82.61
2022-10-18T21:44:13.325Z,82.50
2022-10-18T21:46:43.282Z,83.05
2022-10-18T21:49:11.267Z,83.50
2022-10-18T21:51:38.521Z,83.41
2022-10-18T21:54:08.640Z,83.11
2022-10-18T21:56:35.934Z,82.81
2022-10-18T21:59:04.147Z,83.22
2022-10-18T22:01:37.041Z,83.37
2022-10-18T22:04:06.445Z,83.31
2022-10-18T22:06:36.604Z,82.86
2022-10-18T22:09:07.555Z,81.86
2022-10-18T22:11:38.280Z,82.56
2022-10-18T22:14:05.353Z,82.79
2022-10-18T22:16:32.373Z,81.53
2022-10-18T22:19:01.542Z,82.92
2022-10-18T22:21:29.710Z,82.83
2022-10-18T22:23:57.953Z,82.03
2022-10-18T22:26:35.515Z,83.06
2022-10-18T22:29:09.140Z,82.90
2022-10-18T22:31:39.273Z,82.52
2022-10-18T22:34:09.046Z,83.17
2022-10-18T22:36:36.466Z,83.36
2022-10-18T22:39:05.880Z,82.89
2022-10-18T22:41:33.815Z,83.00
2022-10-18T22:44:04.037Z,83.42
2022-10-18T22:46:33.177Z,83.33
2022-10-18T22:49:00.647Z,82.63
2022-10-18T22:51:27.929Z,82.71
2022-10-18T22:53:55.098Z,82.44
2022-10-18T22:56:23.325Z,82.14
2022-10-18T22:58:50.805Z,82.24
2022-10-18T23:01:20.786Z,82.56
2022-10-18T23:03:52.134Z,82.55
2022-10-18T23:06:30.428Z,82.02
2022-10-18T23:08:59.462Z,82.30
2022-10-18T23:11:28.603Z,81.73
2022-10-18T23:13:55.904Z,82.04
2022-10-18T23:16:23.636Z,81.30
2022-10-18T23:18:52.386Z,81.15
2022-10-18T23:21:20.531Z,81.09
2022-10-18T23:23:47.718Z,81.81
2022-10-18T23:26:16.829Z,82.01
2022-10-18T23:28:48.893Z,82.04
2022-10-18T23:31:26.331Z,81.79
2022-10-18T23:33:55.946Z,82.37
2022-10-18T23:36:25.144Z,82.01
2022-10-18T23:38:55.181Z,82.06
2022-10-18T23:41:22.939Z,81.61
2022-10-18T23:43:49.925Z,81.46
2022-10-18T23:46:18.100Z,81.47
2022-10-18T23:48:46.026Z,81.63
2022-10-18T23:51:13.240Z,82.26
2022-10-18T23:53:40.381Z,82.67
2022-10-18T23:56:12.983Z,81.83
2022-10-18T23:58:40.432Z,82.10
